Time;durP1;ratioP1;P1;durP2;ratioP2;P2;SDS_P1;SDS_P2;PMS_P1;PMS_P2;Temp;Humidity;BMP_temperature;BMP_pressure;BME280_temperature;BME280_humidity;BME280_pressure;Samples;Min_cycle;Max_cycle;Signal;HPM_P1;HPM_P2
2022/01/17 00:02:20;;;;;;;16.90;3.03;;;6.50;99.90;;;;;;5033987;28;20037;-71
2022/01/17 00:04:47;;;;;;;18.73;2.70;;;6.50;99.90;;;;;;5033869;28;20037;-71
2022/01/17 00:07:12;;;;;;;20.45;3.08;;;6.50;99.90;;;;;;5033746;28;20405;-72
2022/01/17 00:09:38;;;;;;;18.92;2.55;;;6.50;99.90;;;;;;5033811;28;20103;-72
2022/01/17 00:12:04;;;;;;;16.13;2.55;;;6.40;99.90;;;;;;5033994;28;20047;-71
2022/01/17 00:14:34;;;;;;;16.88;3.50;;;6.40;99.90;;;;;;5033688;28;20041;-71
2022/01/17 00:17:23;;;;;;;13.90;2.30;;;6.40;99.90;;;;;;5033558;28;20046;-71
2022/01/17 00:19:53;;;;;;;19.30;2.50;;;6.30;99.90;;;;;;5017030;28;20085;-71
2022/01/17 00:22:20;;;;;;;18.90;3.35;;;6.30;99.90;;;;;;5017099;28;20132;-72
2022/01/17 00:24:46;;;;;;;18.48;2.78;;;6.30;99.90;;;;;;5033461;28;20475;-72
2022/01/17 00:27:13;;;;;;;16.65;2.50;;;6.30;99.90;;;;;;5033631;28;20081;-72
2022/01/17 00:29:39;;;;;;;19.95;3.33;;;6.30;99.90;;;;;;5033402;28;20049;-72
2022/01/17 00:32:05;;;;;;;12.63;2.03;;;6.30;99.90;;;;;;5033573;28;20052;-72
2022/01/17 00:34:30;;;;;;;15.02;2.72;;;6.30;99.90;;;;;;5033311;28;20428;-72
2022/01/17 00:36:56;;;;;;;16.48;2.70;;;6.30;99.90;;;;;;5033019;28;20037;-72
2022/01/17 00:39:22;;;;;;;22.48;3.75;;;6.20;99.90;;;;;;5033164;28;20042;-72
2022/01/17 00:41:47;;;;;;;19.88;2.95;;;6.20;99.90;;;;;;5033132;28;20087;-72
2022/01/17 00:44:16;;;;;;;16.98;2.50;;;6.20;99.90;;;;;;5033070;28;20037;-72
2022/01/17 00:46:41;;;;;;;17.85;3.00;;;6.10;99.90;;;;;;5033058;28;20045;-72
2022/01/17 00:49:07;;;;;;;15.95;2.55;;;6.20;99.90;;;;;;5032906;28;20046;-72
2022/01/17 00:51:33;;;;;;;17.98;3.20;;;6.10;99.90;;;;;;5032994;28;20045;-72
2022/01/17 00:53:58;;;;;;;14.02;2.33;;;6.10;99.90;;;;;;5032914;28;20037;-72
2022/01/17 00:56:24;;;;;;;19.73;2.92;;;6.10;99.90;;;;;;5016455;28;20038;-72
2022/01/17 00:58:50;;;;;;;19.33;2.83;;;6.10;99.90;;;;;;5032682;28;20037;-72
2022/01/17 01:01:16;;;;;;;19.15;3.63;;;6.10;99.90;;;;;;5032763;28;20074;-72
2022/01/17 01:03:43;;;;;;;20.73;2.85;;;6.10;99.90;;;;;;5016471;28;20045;-72
2022/01/17 01:06:09;;;;;;;23.90;3.20;;;6.10;99.90;;;;;;5032935;28;20037;-72
2022/01/17 01:08:34;;;;;;;17.65;2.58;;;6.20;99.90;;;;;;5032563;28;20037;-72
2022/01/17 01:11:00;;;;;;;22.60;3.17;;;6.10;99.90;;;;;;5032586;28;20129;-72
2022/01/17 01:13:28;;;;;;;15.85;2.60;;;6.10;99.90;;;;;;5032796;28;20037;-71
2022/01/17 01:29:56;;;;;;;18.98;3.75;;;5.90;99.90;;;;;;5009612;28;20049;-71
2022/01/17 01:32:25;;;;;;;18.58;3.72;;;5.90;99.90;;;;;;5032535;28;20111;-72
2022/01/17 01:34:54;;;;;;;22.05;2.67;;;5.80;99.90;;;;;;5016273;28;20120;-72
2022/01/17 01:37:20;;;;;;;14.85;2.63;;;5.80;99.90;;;;;;5015750;28;20100;-72
2022/01/17 01:39:49;;;;;;;20.98;3.20;;;5.80;99.90;;;;;;5032108;28;20460;-72
2022/01/17 01:42:17;;;;;;;19.55;2.88;;;5.80;99.90;;;;;;5032113;28;20037;-72
2022/01/17 01:44:43;;;;;;;21.88;3.03;;;5.80;99.90;;;;;;5015603;28;20486;-72
2022/01/17 01:47:09;;;;;;;22.85;2.88;;;5.80;99.90;;;;;;5032285;28;20108;-72
2022/01/17 01:49:35;;;;;;;21.08;3.10;;;5.80;99.90;;;;;;5031970;28;20493;-72
2022/01/17 01:52:01;;;;;;;20.83;3.05;;;5.70;99.90;;;;;;5031975;28;20084;-72
2022/01/17 01:54:26;;;;;;;15.85;2.72;;;5.70;99.90;;;;;;5031980;28;20044;-72
2022/01/17 01:56:52;;;;;;;23.80;3.45;;;5.70;99.90;;;;;;5032127;28;20048;-71
2022/01/17 01:59:22;;;;;;;18.90;3.13;;;5.70;99.90;;;;;;5031929;28;20509;-71
2022/01/17 02:01:49;;;;;;;20.77;2.95;;;5.70;99.90;;;;;;5031868;28;20497;-71
2022/01/17 02:04:15;;;;;;;15.98;2.67;;;5.70;99.90;;;;;;5032106;28;20030;-71
2022/01/17 02:06:41;;;;;;;19.60;3.33;;;5.60;99.90;;;;;;5031825;28;20069;-71
2022/01/17 02:09:07;;;;;;;14.90;2.65;;;5.60;99.90;;;;;;5015200;28;20599;-72
2022/01/17 02:11:35;;;;;;;19.17;3.28;;;5.60;99.90;;;;;;5031994;28;20128;-71
2022/01/17 02:14:01;;;;;;;20.80;3.17;;;5.60;99.90;;;;;;5032042;28;20107;-71
2022/01/17 02:16:27;;;;;;;18.80;3.55;;;5.60;99.90;;;;;;5031981;28;20034;-71
2022/01/17 02:18:53;;;;;;;18.80;3.10;;;5.60;99.90;;;;;;5031541;28;20179;-71
2022/01/17 02:21:31;;;;;;;21.60;3.65;;;5.60;99.90;;;;;;5031688;28;20037;-71
2022/01/17 02:23:57;;;;;;;22.08;3.05;;;5.60;99.90;;;;;;5031795;28;20037;-71
2022/01/17 02:26:23;;;;;;;21.27;3.22;;;5.60;99.90;;;;;;5015424;28;20052;-72
2022/01/17 02:28:54;;;;;;;25.10;3.53;;;5.60;99.90;;;;;;5015064;28;20041;-72
2022/01/17 02:31:21;;;;;;;22.10;3.30;;;5.50;99.90;;;;;;5031684;28;20125;-72
2022/01/17 02:33:49;;;;;;;24.63;3.47;;;5.50;99.90;;;;;;5031588;28;20044;-72
2022/01/17 02:36:15;;;;;;;16.40;2.92;;;5.50;99.90;;;;;;5031475;28;20413;-72
2022/01/17 02:38:41;;;;;;;19.02;3.28;;;5.50;99.90;;;;;;5031394;28;20042;-72
2022/01/17 02:41:07;;;;;;;20.42;3.20;;;5.50;99.90;;;;;;5031467;28;20049;-72
2022/01/17 02:43:34;;;;;;;18.63;2.30;;;5.50;99.90;;;;;;5035234;28;20516;-72
2022/01/17 02:48:29;;;;;;;21.35;3.15;;;5.40;99.90;;;;;;5035191;28;20111;-72
2022/01/17 02:50:56;;;;;;;20.80;3.05;;;5.40;99.90;;;;;;5035516;28;20068;-72
2022/01/17 02:53:22;;;;;;;14.43;2.72;;;5.30;99.90;;;;;;5018964;28;20390;-72
2022/01/17 02:55:54;;;;;;;23.02;2.70;;;5.30;99.90;;;;;;5035394;28;20124;-72
2022/01/17 02:58:21;;;;;;;19.30;2.60;;;5.30;99.90;;;;;;5035033;28;20098;-72
2022/01/17 03:00:48;;;;;;;17.83;3.30;;;5.30;99.90;;;;;;5034935;28;20431;-72
2022/01/17 03:03:17;;;;;;;23.60;3.00;;;5.30;99.90;;;;;;5034990;28;20163;-72
2022/01/17 03:05:43;;;;;;;21.08;2.58;;;5.30;99.90;;;;;;5034820;28;20516;-72
2022/01/17 03:08:09;;;;;;;16.70;2.80;;;5.20;99.90;;;;;;5034848;28;20045;-72
2022/01/17 03:10:40;;;;;;;21.30;3.95;;;5.20;99.90;;;;;;5034847;28;20037;-72
2022/01/17 03:13:12;;;;;;;26.13;3.95;;;5.20;99.90;;;;;;5035154;28;20037;-72
2022/01/17 03:15:38;;;;;;;22.52;2.70;;;5.20;99.90;;;;;;5018346;28;20050;-72
2022/01/17 03:18:04;;;;;;;24.35;3.28;;;5.20;99.90;;;;;;5018156;28;20520;-71
2022/01/17 03:20:31;;;;;;;21.58;2.92;;;5.20;99.90;;;;;;5034612;28;20128;-71
2022/01/17 03:22:57;;;;;;;22.98;3.40;;;5.20;99.90;;;;;;5034701;28;20125;-71
2022/01/17 03:25:23;;;;;;;19.15;2.78;;;5.20;99.90;;;;;;5034868;28;20037;-71
2022/01/17 03:27:48;;;;;;;19.25;2.78;;;5.30;99.90;;;;;;5034495;28;20037;-71
2022/01/17 03:30:14;;;;;;;19.63;3.10;;;5.30;99.90;;;;;;5018025;28;20045;-72
2022/01/17 03:32:40;;;;;;;13.15;2.65;;;5.30;99.90;;;;;;5017971;28;20052;-72
2022/01/17 03:35:06;;;;;;;22.67;4.05;;;5.30;99.90;;;;;;5034685;28;20045;-72
2022/01/17 03:37:32;;;;;;;18.05;2.63;;;5.30;99.90;;;;;;5034114;28;20038;-72
2022/01/17 03:39:58;;;;;;;20.83;3.08;;;5.30;99.90;;;;;;5034514;28;20049;-72
2022/01/17 03:42:24;;;;;;;20.67;2.80;;;5.30;99.90;;;;;;5034539;28;20051;-72
2022/01/17 03:44:50;;;;;;;18.02;3.45;;;5.30;99.90;;;;;;5034225;28;20045;-72
2022/01/17 03:47:16;;;;;;;14.75;2.78;;;5.40;99.90;;;;;;5017897;28;20171;-72
2022/01/17 03:49:42;;;;;;;21.25;2.88;;;5.40;99.90;;;;;;5034406;28;20120;-72
2022/01/17 03:52:08;;;;;;;21.33;2.90;;;5.40;99.90;;;;;;5033832;28;20523;-72
2022/01/17 03:54:34;;;;;;;17.17;2.53;;;5.40;99.90;;;;;;5017740;28;20084;-72
2022/01/17 03:56:59;;;;;;;14.45;2.35;;;5.40;99.90;;;;;;5033950;28;20520;-72
2022/01/17 03:59:25;;;;;;;16.50;2.22;;;5.40;99.90;;;;;;5017374;28;20124;-72
2022/01/17 04:01:51;;;;;;;15.27;2.25;;;5.50;99.90;;;;;;5033902;28;20065;-72
2022/01/17 04:04:17;;;;;;;15.20;2.53;;;5.40;99.90;;;;;;5017424;28;20076;-72
2022/01/17 04:06:43;;;;;;;18.95;3.10;;;5.50;99.90;;;;;;5034073;28;20044;-72
2022/01/17 04:09:09;;;;;;;12.23;2.20;;;5.50;99.90;;;;;;5017230;28;20045;-72
2022/01/17 04:11:36;;;;;;;16.05;2.50;;;5.50;99.90;;;;;;5033768;28;20037;-71
2022/01/17 04:14:02;;;;;;;16.08;2.40;;;5.50;99.90;;;;;;5017215;28;20044;-71
2022/01/17 04:16:28;;;;;;;18.77;2.22;;;5.50;99.90;;;;;;5033928;28;20370;-72
2022/01/17 04:18:55;;;;;;;15.00;2.65;;;5.50;99.90;;;;;;5033548;28;20508;-71
2022/01/17 04:21:20;;;;;;;18.98;3.03;;;5.50;99.90;;;;;;5033468;28;20046;-71
2022/01/17 04:23:46;;;;;;;19.13;2.47;;;5.40;99.90;;;;;;5033529;28;20044;-71
2022/01/17 04:26:12;;;;;;;12.70;2.40;;;5.40;99.90;;;;;;5033726;28;20087;-72
2022/01/17 04:28:38;;;;;;;15.98;2.30;;;5.40;99.90;;;;;;5033626;28;20482;-72
2022/01/17 04:31:03;;;;;;;20.13;3.03;;;5.40;99.90;;;;;;5033611;28;20493;-72
2022/01/17 04:33:29;;;;;;;16.75;2.40;;;5.40;99.90;;;;;;5033621;28;20068;-72
2022/01/17 04:35:55;;;;;;;13.13;2.10;;;5.40;99.90;;;;;;5017029;28;20512;-72
2022/01/17 04:38:20;;;;;;;20.35;2.75;;;5.40;99.90;;;;;;5033321;28;20045;-72
2022/01/17 04:40:48;;;;;;;15.15;2.45;;;5.30;99.90;;;;;;5033150;28;20045;-71
2022/01/17 04:43:21;;;;;;;18.90;2.30;;;5.40;99.90;;;;;;5016640;28;20041;-71
2022/01/17 04:45:48;;;;;;;17.67;2.53;;;5.40;99.90;;;;;;5033128;28;20041;-71
2022/01/17 04:48:14;;;;;;;13.15;3.05;;;5.40;99.90;;;;;;5032986;28;20163;-72
2022/01/17 04:50:40;;;;;;;11.73;1.92;;;5.30;99.90;;;;;;5032970;28;20050;-71
2022/01/17 04:53:07;;;;;;;12.80;2.95;;;5.40;99.90;;;;;;5032960;28;20048;-71
2022/01/17 04:55:36;;;;;;;14.82;2.30;;;5.30;99.90;;;;;;5032867;28;20053;-71
2022/01/17 04:58:02;;;;;;;21.00;3.25;;;5.30;99.90;;;;;;5033068;28;20045;-71
2022/01/17 05:00:27;;;;;;;16.38;2.58;;;5.40;99.90;;;;;;5032873;28;20079;-71
2022/01/17 05:02:54;;;;;;;21.92;3.05;;;5.40;99.90;;;;;;5016535;28;20069;-71
2022/01/17 05:05:20;;;;;;;16.23;2.60;;;5.40;99.90;;;;;;5032050;28;20068;-71
2022/01/17 05:07:46;;;;;;;19.67;3.42;;;5.50;99.90;;;;;;5016175;28;20150;-71
2022/01/17 05:10:15;;;;;;;19.15;2.45;;;5.50;99.90;;;;;;5032606;28;20073;-71
2022/01/17 05:12:41;;;;;;;19.13;3.42;;;5.60;99.90;;;;;;5032612;28;20095;-71
2022/01/17 05:15:17;;;;;;;19.10;3.10;;;5.60;99.90;;;;;;5032545;28;20045;-71
2022/01/17 05:17:56;;;;;;;21.42;3.45;;;5.70;99.90;;;;;;5032503;28;20041;-71
2022/01/17 05:20:22;;;;;;;19.77;3.20;;;5.70;99.90;;;;;;5015938;28;20477;-71
2022/01/17 05:22:48;;;;;;;18.60;3.67;;;5.80;99.90;;;;;;5032761;28;20076;-71
2022/01/17 05:25:14;;;;;;;23.80;3.88;;;5.90;99.90;;;;;;5016184;28;20554;-71
2022/01/17 05:27:39;;;;;;;17.60;3.00;;;5.90;99.90;;;;;;5032526;28;20038;-71
2022/01/17 05:30:13;;;;;;;18.10;2.88;;;5.90;99.90;;;;;;5015850;28;20045;-71
2022/01/17 05:32:39;;;;;;;20.27;3.42;;;6.00;99.90;;;;;;5032314;28;20052;-71
2022/01/17 05:35:05;;;;;;;24.83;3.13;;;6.00;99.90;;;;;;5032282;28;20046;-71
2022/01/17 05:37:31;;;;;;;17.77;3.78;;;6.10;99.90;;;;;;5062121;22;20037;-73
2022/01/17 05:39:57;;;;;;;17.38;3.33;;;6.10;99.90;;;;;;5035763;28;20041;-74
2022/01/17 05:42:24;;;;;;;20.60;3.20;;;6.10;99.90;;;;;;5052599;28;20033;-74
2022/01/17 05:44:51;;;;;;;16.45;3.08;;;6.10;99.90;;;;;;5052320;28;20041;-73
2022/01/17 05:47:17;;;;;;;22.65;3.65;;;6.20;99.90;;;;;;5052102;28;20041;-73
2022/01/17 05:49:43;;;;;;;20.83;3.15;;;6.20;99.90;;;;;;5052185;28;20131;-74
2022/01/17 05:52:09;;;;;;;18.90;3.25;;;6.20;99.90;;;;;;5035621;28;20171;-74
2022/01/17 05:54:36;;;;;;;26.13;3.95;;;6.20;99.90;;;;;;5052387;28;20103;-73
2022/01/17 05:57:03;;;;;;;19.45;3.22;;;6.20;99.90;;;;;;5052084;28;20041;-73
2022/01/17 05:59:28;;;;;;;22.60;3.45;;;6.10;99.90;;;;;;5052226;28;20496;-74
2022/01/17 06:01:54;;;;;;;21.50;3.42;;;6.20;99.90;;;;;;5035635;28;20044;-74
2022/01/17 06:04:20;;;;;;;18.73;3.60;;;6.20;99.90;;;;;;5052133;28;20033;-74
2022/01/17 06:06:47;;;;;;;26.63;3.83;;;6.20;99.90;;;;;;5035668;28;20052;-74
2022/01/17 06:09:13;;;;;;;20.60;3.53;;;6.20;99.90;;;;;;5035406;28;20044;-74
2022/01/17 06:11:38;;;;;;;23.23;3.65;;;6.20;99.90;;;;;;5052363;28;20045;-74
2022/01/17 06:14:04;;;;;;;15.18;3.78;;;6.20;99.90;;;;;;5051901;28;20037;-74
2022/01/17 06:16:30;;;;;;;26.05;4.60;;;6.20;99.90;;;;;;5054156;28;20054;-73
2022/01/17 06:18:56;;;;;;;26.33;6.10;;;6.30;99.90;;;;;;5039471;28;20035;-73
2022/01/17 06:21:22;;;;;;;21.80;3.45;;;6.30;99.90;;;;;;5056108;28;20055;-73
2022/01/17 06:23:48;;;;;;;25.98;4.55;;;6.30;99.90;;;;;;5056207;28;20505;-74
2022/01/17 06:26:13;;;;;;;17.20;3.90;;;6.30;99.90;;;;;;5039523;28;20111;-73
2022/01/17 06:28:39;;;;;;;29.15;4.97;;;6.30;99.90;;;;;;5055669;28;20037;-73
2022/01/17 06:31:04;;;;;;;26.27;4.68;;;6.40;99.90;;;;;;5055921;28;20041;-74
2022/01/17 06:33:30;;;;;;;21.75;4.43;;;6.40;99.90;;;;;;5039382;28;20037;-74
2022/01/17 06:35:56;;;;;;;24.42;3.63;;;6.30;99.90;;;;;;5039175;28;20072;-74
2022/01/17 06:38:22;;;;;;;27.10;4.43;;;6.40;99.90;;;;;;5055439;28;20130;-73
2022/01/17 06:40:47;;;;;;;22.17;4.60;;;6.30;99.90;;;;;;5055750;28;20048;-74
2022/01/17 06:43:13;;;;;;;24.83;4.20;;;6.30;99.90;;;;;;5055892;28;20037;-74
2022/01/17 06:45:39;;;;;;;24.17;4.57;;;6.40;99.90;;;;;;5055625;28;20485;-74
2022/01/17 06:48:06;;;;;;;23.65;4.82;;;6.40;99.90;;;;;;5055792;28;20044;-73
2022/01/17 06:50:35;;;;;;;20.40;4.85;;;6.40;99.90;;;;;;5055801;28;20465;-74
2022/01/17 06:53:02;;;;;;;24.17;5.72;;;6.40;99.90;;;;;;5055583;28;20090;-74
2022/01/17 06:55:27;;;;;;;25.52;5.70;;;6.40;99.90;;;;;;5038506;28;20051;-71
2022/01/17 06:57:53;;;;;;;26.65;5.05;;;6.40;99.90;;;;;;5054986;28;20044;-71
2022/01/17 07:00:18;;;;;;;26.77;4.75;;;6.40;99.90;;;;;;5038479;28;20033;-71
2022/01/17 07:02:44;;;;;;;25.80;4.95;;;6.40;99.90;;;;;;5054968;28;20557;-71
2022/01/17 07:05:10;;;;;;;33.40;5.72;;;6.40;99.90;;;;;;5038344;28;20044;-71
2022/01/17 07:07:35;;;;;;;22.30;4.95;;;6.40;99.90;;;;;;5054783;28;20040;-71
2022/01/17 07:10:01;;;;;;;28.23;5.18;;;6.40;99.90;;;;;;5054834;28;20044;-71
2022/01/17 07:12:27;;;;;;;27.40;6.15;;;6.40;99.90;;;;;;5054842;28;20045;-71
2022/01/17 07:14:53;;;;;;;26.40;5.07;;;6.40;99.90;;;;;;5054744;28;20101;-71
2022/01/17 07:17:19;;;;;;;30.17;6.43;;;6.40;99.90;;;;;;5054618;28;20040;-71
2022/01/17 07:19:44;;;;;;;35.40;5.80;;;6.40;99.90;;;;;;5054603;28;20052;-71
2022/01/17 07:22:10;;;;;;;27.30;5.50;;;6.40;99.90;;;;;;5054576;28;20044;-71
2022/01/17 07:24:36;;;;;;;25.52;5.57;;;6.40;99.90;;;;;;5037962;28;20033;-71
2022/01/17 07:27:02;;;;;;;27.45;5.30;;;6.40;99.90;;;;;;5054020;28;20047;-71
2022/01/17 07:29:28;;;;;;;26.13;4.85;;;6.40;99.90;;;;;;5054218;28;20496;-71
2022/01/17 07:31:54;;;;;;;31.65;5.47;;;6.40;99.90;;;;;;5037789;28;20044;-71
2022/01/17 07:34:21;;;;;;;27.65;5.47;;;6.40;99.90;;;;;;5054393;28;20072;-71
2022/01/17 07:36:46;;;;;;;32.40;5.75;;;6.40;99.90;;;;;;5037737;28;20076;-71
2022/01/17 07:39:12;;;;;;;28.83;5.57;;;6.40;99.90;;;;;;5054077;28;20080;-71
2022/01/17 07:41:38;;;;;;;33.55;5.18;;;6.40;99.90;;;;;;5054447;28;20144;-71
2022/01/17 07:44:05;;;;;;;28.17;5.03;;;6.40;99.90;;;;;;5054237;28;20523;-71
2022/01/17 07:49:13;;;;;;;31.67;5.68;;;6.40;99.90;;;;;;5054325;28;20077;-71
2022/01/17 07:51:41;;;;;;;28.55;5.18;;;6.40;99.90;;;;;;5054219;28;20076;-71
2022/01/17 07:54:10;;;;;;;33.80;5.68;;;6.40;99.90;;;;;;5054031;28;20044;-71
2022/01/17 07:56:36;;;;;;;26.88;5.20;;;6.40;99.90;;;;;;5053988;28;20040;-71
2022/01/17 07:59:03;;;;;;;29.00;5.88;;;6.40;99.90;;;;;;5053860;28;20520;-71
2022/01/17 08:01:28;;;;;;;32.83;5.15;;;6.50;99.90;;;;;;5053808;28;20044;-71
2022/01/17 08:03:54;;;;;;;32.90;5.20;;;6.40;99.90;;;;;;5053807;28;20029;-71
2022/01/17 08:06:20;;;;;;;29.05;5.38;;;6.50;99.90;;;;;;5037207;28;20112;-71
2022/01/17 08:08:47;;;;;;;26.63;5.38;;;6.50;99.90;;;;;;5037092;28;20040;-71
2022/01/17 08:11:13;;;;;;;31.75;5.80;;;6.50;99.90;;;;;;5053959;28;20048;-71
2022/01/17 08:13:38;;;;;;;32.05;5.20;;;6.50;99.90;;;;;;5053631;28;20040;-71
2022/01/17 08:16:04;;;;;;;31.13;5.47;;;6.50;99.90;;;;;;5053572;28;20040;-71
2022/01/17 08:18:30;;;;;;;27.77;4.72;;;6.60;99.90;;;;;;5053455;28;20072;-71
2022/01/17 08:20:56;;;;;;;27.48;4.65;;;6.60;99.90;;;;;;5053590;28;20047;-71
2022/01/17 08:23:21;;;;;;;29.17;5.28;;;6.60;99.90;;;;;;5037010;28;20128;-71
2022/01/17 08:25:47;;;;;;;32.42;5.47;;;6.60;99.90;;;;;;5053373;28;20505;-71
2022/01/17 08:28:13;;;;;;;30.38;5.65;;;6.60;99.90;;;;;;5036635;28;20124;-71
2022/01/17 08:30:39;;;;;;;27.38;4.97;;;6.60;99.90;;;;;;5053298;28;20508;-71
2022/01/17 08:33:05;;;;;;;30.15;4.93;;;6.70;99.90;;;;;;5053492;28;20132;-71
2022/01/17 08:35:31;;;;;;;34.70;5.57;;;6.70;99.90;;;;;;5053446;28;20121;-70
2022/01/17 08:37:57;;;;;;;29.73;4.53;;;6.70;99.90;;;;;;5036625;28;20047;-70
2022/01/17 08:40:23;;;;;;;26.42;5.05;;;6.70;99.90;;;;;;5051985;28;20378;-71
2022/01/17 08:42:49;;;;;;;37.17;5.00;;;6.70;99.90;;;;;;5053114;28;20151;-71
2022/01/17 08:45:16;;;;;;;31.10;5.00;;;6.80;99.90;;;;;;5053296;28;20104;-71
2022/01/17 08:47:49;;;;;;;27.15;4.38;;;6.80;99.90;;;;;;5053072;28;20405;-70
2022/01/17 08:50:17;;;;;;;38.95;5.53;;;6.80;99.90;;;;;;5053243;28;20037;-71
2022/01/17 08:52:45;;;;;;;39.45;6.78;;;6.80;99.90;;;;;;5053090;28;20045;-71
2022/01/17 08:55:11;;;;;;;48.65;6.55;;;6.90;99.90;;;;;;5052823;28;20045;-71
2022/01/17 08:57:36;;;;;;;35.45;5.82;;;6.90;99.90;;;;;;5052932;28;20068;-71
2022/01/17 09:00:06;;;;;;;32.10;5.22;;;6.90;99.90;;;;;;5052814;28;20080;-71
2022/01/17 09:02:31;;;;;;;39.25;5.95;;;6.90;99.90;;;;;;5052939;28;20076;-71
2022/01/17 09:04:57;;;;;;;34.05;5.40;;;7.00;99.90;;;;;;5052530;28;20080;-71
2022/01/17 09:07:22;;;;;;;36.10;5.15;;;7.00;99.90;;;;;;5052703;28;20036;-71
2022/01/17 09:09:48;;;;;;;34.15;6.03;;;7.00;99.90;;;;;;5036327;28;20470;-71
2022/01/17 09:12:15;;;;;;;30.40;5.07;;;7.00;99.90;;;;;;5052512;28;20504;-71
2022/01/17 09:14:40;;;;;;;32.70;5.05;;;7.00;99.90;;;;;;5036356;28;20132;-71
2022/01/17 09:17:08;;;;;;;39.47;5.80;;;7.00;99.90;;;;;;5052439;28;20079;-71
2022/01/17 09:19:39;;;;;;;39.58;5.68;;;7.10;99.90;;;;;;5052319;28;20569;-71
2022/01/17 09:22:06;;;;;;;37.33;6.55;;;7.10;99.90;;;;;;5052668;28;20134;-71
2022/01/17 09:24:33;;;;;;;33.92;5.53;;;7.10;99.90;;;;;;5052370;28;20044;-71
2022/01/17 09:26:59;;;;;;;34.67;5.35;;;7.20;99.90;;;;;;5035679;28;20033;-71
2022/01/17 09:29:25;;;;;;;42.05;6.47;;;7.20;99.90;;;;;;5052499;28;20029;-71
2022/01/17 09:31:51;;;;;;;38.58;5.93;;;7.20;99.90;;;;;;5052265;28;20396;-71
2022/01/17 09:34:17;;;;;;;29.75;4.70;;;7.30;99.90;;;;;;5052763;28;20045;-71
2022/01/17 09:36:43;;;;;;;40.80;7.20;;;7.30;99.90;;;;;;5051998;28;20052;-71
2022/01/17 09:39:09;;;;;;;41.40;6.22;;;7.40;99.90;;;;;;5052133;28;20037;-71
2022/01/17 09:41:35;;;;;;;39.97;5.35;;;7.40;99.90;;;;;;5035411;28;20056;-71
2022/01/17 09:44:02;;;;;;;35.25;5.88;;;7.50;99.90;;;;;;5052301;28;20485;-71
2022/01/17 09:46:33;;;;;;;31.02;5.30;;;7.60;99.90;;;;;;5051997;28;20051;-71
2022/01/17 09:49:12;;;;;;;38.15;6.10;;;7.70;99.90;;;;;;5052008;28;20037;-72
2022/01/17 09:52:03;;;;;;;33.17;5.55;;;7.80;99.90;;;;;;5051637;28;20489;-71
2022/01/17 09:54:30;;;;;;;28.85;5.38;;;7.90;99.90;;;;;;5052141;28;20048;-71
2022/01/17 09:56:57;;;;;;;35.90;6.00;;;7.90;99.90;;;;;;5052022;28;20037;-71
2022/01/17 09:59:23;;;;;;;32.13;6.47;;;8.00;99.90;;;;;;5051723;28;20036;-72
2022/01/17 10:01:50;;;;;;;40.45;5.95;;;8.00;99.90;;;;;;5052227;28;20152;-71
2022/01/17 10:04:18;;;;;;;35.90;6.07;;;8.10;99.90;;;;;;5051980;28;20532;-71
2022/01/17 10:06:52;;;;;;;35.40;5.50;;;8.20;99.90;;;;;;5035165;28;20045;-71
2022/01/17 10:09:24;;;;;;;37.85;5.28;;;8.30;99.90;;;;;;5051939;28;20147;-71
2022/01/17 10:12:01;;;;;;;43.15;6.15;;;8.40;99.90;;;;;;5051739;28;20072;-71
2022/01/17 10:14:28;;;;;;;34.72;5.85;;;8.40;99.90;;;;;;5051657;28;20037;-71
2022/01/17 10:16:54;;;;;;;37.17;6.75;;;8.40;99.90;;;;;;5051826;28;20037;-71
2022/01/17 10:19:26;;;;;;;38.95;6.30;;;8.60;99.90;;;;;;5051625;28;20099;-72
2022/01/17 10:21:56;;;;;;;33.72;6.20;;;8.70;99.90;;;;;;5051960;28;20041;-72
2022/01/17 10:35:27;;;;;;;36.83;7.00;;;8.90;99.90;;;;;;5051668;28;20498;-71
2022/01/17 10:38:11;;;;;;;39.97;6.78;;;9.00;99.90;;;;;;5052292;28;20037;-71
2022/01/17 10:40:49;;;;;;;40.35;6.70;;;9.10;99.90;;;;;;5051417;28;20090;-72
2022/01/17 10:43:27;;;;;;;40.83;7.15;;;9.10;99.90;;;;;;5051439;28;20041;-71
2022/01/17 10:45:55;;;;;;;40.00;6.32;;;9.20;99.90;;;;;;5052327;28;20068;-71
2022/01/17 10:48:29;;;;;;;39.05;5.97;;;9.30;99.90;;;;;;5051530;28;20111;-71
2022/01/17 10:50:54;;;;;;;34.17;5.93;;;9.30;99.90;;;;;;5051321;28;20041;-72
2022/01/17 10:53:20;;;;;;;37.28;5.90;;;9.30;99.90;;;;;;5051474;28;20040;-71
2022/01/17 10:55:49;;;;;;;39.53;6.20;;;9.30;99.90;;;;;;5051272;28;20033;-71
2022/01/17 10:58:24;;;;;;;45.55;7.32;;;9.30;99.90;;;;;;5051216;28;20037;-71
2022/01/17 11:00:58;;;;;;;38.15;7.32;;;9.20;99.90;;;;;;5051224;28;20086;-71
2022/01/17 11:03:30;;;;;;;39.22;6.78;;;9.20;99.90;;;;;;5053092;28;20128;-71
2022/01/17 11:06:00;;;;;;;35.25;7.15;;;9.10;99.90;;;;;;5055358;28;20029;-71
2022/01/17 11:08:28;;;;;;;44.83;7.97;;;9.10;99.90;;;;;;5054851;28;20494;-71
2022/01/17 11:10:57;;;;;;;39.60;7.13;;;9.10;99.90;;;;;;5054861;28;20048;-72
2022/01/17 11:13:26;;;;;;;37.20;7.15;;;9.10;99.90;;;;;;5054937;28;20044;-71
2022/01/17 11:15:55;;;;;;;43.47;7.03;;;9.10;99.90;;;;;;5054982;28;20041;-72
2022/01/17 11:18:25;;;;;;;44.20;7.55;;;9.10;99.90;;;;;;5054793;28;20044;-72
2022/01/17 11:20:53;;;;;;;39.65;6.43;;;9.10;99.90;;;;;;5054666;28;20049;-71
2022/01/17 11:23:23;;;;;;;42.45;7.75;;;9.10;99.90;;;;;;5055194;28;20038;-71
2022/01/17 11:25:55;;;;;;;45.17;7.05;;;9.10;99.90;;;;;;5038106;28;20090;-71
2022/01/17 11:28:26;;;;;;;45.30;7.97;;;9.40;99.90;;;;;;5038152;28;20081;-71
2022/01/17 11:30:55;;;;;;;42.58;7.68;;;9.70;99.90;;;;;;5054883;28;20474;-71
2022/01/17 11:33:22;;;;;;;44.72;7.95;;;10.30;99.90;;;;;;5054571;28;20457;-71
2022/01/17 11:35:52;;;;;;;49.17;8.10;;;10.90;99.90;;;;;;5054634;28;20095;-71
2022/01/17 11:38:26;;;;;;;38.25;7.32;;;11.00;99.90;;;;;;5075358;22;20052;-72
2022/01/17 11:40:52;;;;;;;47.92;7.78;;;10.90;99.90;;;;;;5034502;28;20099;-72
2022/01/17 11:43:37;;;;;;;39.10;7.03;;;10.60;99.90;;;;;;5034353;28;20086;-72
2022/01/17 11:46:08;;;;;;;42.15;7.60;;;10.40;99.90;;;;;;5034347;28;20128;-72
2022/01/17 11:48:34;;;;;;;38.97;6.72;;;10.40;99.90;;;;;;5017706;28;20034;-72
2022/01/17 11:51:14;;;;;;;45.72;7.45;;;10.60;99.90;;;;;;5017736;28;20074;-72
2022/01/17 11:53:42;;;;;;;42.95;7.97;;;11.20;99.90;;;;;;5017615;28;20570;-72
2022/01/17 11:56:09;;;;;;;38.03;8.63;;;11.70;99.90;;;;;;5034139;28;20128;-72
2022/01/17 11:58:45;;;;;;;38.08;6.88;;;12.10;99.90;;;;;;5033948;28;20049;-72
2022/01/17 12:01:20;;;;;;;37.42;7.20;;;12.30;99.90;;;;;;5017533;28;20037;-72
2022/01/17 12:03:50;;;;;;;40.83;7.72;;;12.10;99.90;;;;;;5034165;28;20443;-72
2022/01/17 12:06:21;;;;;;;40.97;7.88;;;12.00;99.90;;;;;;5033908;28;20077;-72
2022/01/17 12:08:49;;;;;;;36.92;6.53;;;12.10;99.90;;;;;;5034125;28;20037;-72
2022/01/17 12:11:35;;;;;;;41.63;7.93;;;11.90;99.90;;;;;;5034131;28;20128;-72
2022/01/17 12:14:26;;;;;;;37.80;7.68;;;11.60;99.90;;;;;;5033247;28;20540;-72
2022/01/17 12:16:51;;;;;;;53.67;8.38;;;11.20;99.90;;;;;;5034241;28;20041;-72
2022/01/17 12:19:17;;;;;;;42.80;7.40;;;11.00;99.90;;;;;;5017135;28;20124;-72
2022/01/17 12:21:53;;;;;;;42.85;6.88;;;10.80;99.90;;;;;;5033985;28;20053;-72
2022/01/17 12:24:39;;;;;;;34.45;8.68;;;10.60;99.90;;;;;;5033688;28;20504;-72
2022/01/17 12:27:13;;;;;;;45.47;7.57;;;10.40;99.90;;;;;;5033528;28;20037;-71
2022/01/17 12:29:55;;;;;;;35.45;5.85;;;10.30;99.90;;;;;;5033686;28;20131;-72
2022/01/17 12:32:24;;;;;;;28.23;6.28;;;10.80;99.90;;;;;;5017205;28;20033;-72
2022/01/17 12:34:58;;;;;;;37.42;7.22;;;12.00;99.90;;;;;;5033330;28;20490;-72
2022/01/17 12:37:46;;;;;;;36.45;6.82;;;12.20;99.90;;;;;;5033538;28;20469;-73
2022/01/17 12:40:19;;;;;;;35.45;7.93;;;11.80;99.90;;;;;;5033332;28;20037;-73
2022/01/17 12:43:03;;;;;;;32.85;7.38;;;11.40;99.90;;;;;;5033509;28;20033;-73
2022/01/17 12:45:35;;;;;;;36.88;6.72;;;11.10;99.90;;;;;;5033449;28;20041;-73
2022/01/17 12:48:05;;;;;;;39.35;7.63;;;10.80;99.90;;;;;;5033149;28;20042;-73
2022/01/17 12:50:32;;;;;;;36.00;6.75;;;10.60;99.90;;;;;;5033089;28;20564;-73
2022/01/17 12:53:00;;;;;;;36.95;8.38;;;10.50;99.90;;;;;;5033041;28;20587;-73
2022/01/17 12:55:43;;;;;;;35.78;7.40;;;10.30;99.90;;;;;;5033246;28;20052;-72
2022/01/17 12:58:16;;;;;;;35.83;5.87;;;10.20;99.90;;;;;;5016574;28;20041;-73
2022/01/17 13:00:44;;;;;;;28.88;5.45;;;10.10;99.90;;;;;;5032786;28;20850;-73
2022/01/17 13:03:12;;;;;;;29.92;6.97;;;10.00;99.90;;;;;;5033080;28;20087;-74
2022/01/17 13:05:39;;;;;;;41.03;7.18;;;10.00;99.90;;;;;;5033044;28;20072;-74
2022/01/17 13:08:06;;;;;;;37.65;7.47;;;9.90;99.90;;;;;;5032991;28;20041;-74
2022/01/17 13:10:32;;;;;;;36.58;6.57;;;9.90;99.90;;;;;;5032721;28;20045;-74
2022/01/17 13:12:59;;;;;;;33.15;6.28;;;9.90;99.90;;;;;;5032615;28;20084;-74
2022/01/17 13:15:25;;;;;;;40.70;7.78;;;9.90;99.90;;;;;;5016404;28;20532;-74
2022/01/17 13:17:52;;;;;;;42.00;7.47;;;9.80;99.90;;;;;;5032461;28;20077;-74
2022/01/17 13:20:19;;;;;;;35.08;5.88;;;9.80;99.90;;;;;;5032446;28;20049;-74